Time;durP1;ratioP1;P1;durP2;ratioP2;P2;SDS_P1;SDS_P2;PMS_P1;PMS_P2;Temp;Humidity;BMP_temperature;BMP_pressure;BME280_temperature;BME280_humidity;BME280_pressure;Samples;Min_cycle;Max_cycle;Signal;HPM_P1;HPM_P2
2022/03/26 00:00:01;;;;;;;282.80;116.25;;;;;;;4.43;100.00;103175.09;4923896;28;20682;-72
2022/03/26 00:02:27;;;;;;;294.38;122.32;;;;;;;4.42;100.00;103171.56;4921707;28;20059;-73
2022/03/26 00:04:53;;;;;;;293.70;122.38;;;;;;;4.36;100.00;103174.69;4908588;28;20050;-73
2022/03/26 00:07:18;;;;;;;300.67;120.57;;;;;;;4.35;100.00;103178.31;4926033;28;20702;-73
2022/03/26 00:09:44;;;;;;;300.13;125.38;;;;;;;4.29;100.00;103173.44;4906591;28;20058;-73
2022/03/26 00:12:09;;;;;;;332.13;128.20;;;;;;;4.28;100.00;103177.06;4923008;28;23680;-73
2022/03/26 00:14:35;;;;;;;332.33;127.03;;;;;;;4.22;100.00;103172.19;4897019;28;20064;-72
2022/03/26 00:17:00;;;;;;;323.25;124.28;;;;;;;4.15;100.00;103170.97;4924432;28;20041;-73
2022/03/26 00:19:27;;;;;;;349.27;133.85;;;;;;;4.09;100.00;103182.91;4906915;28;20086;-73
2022/03/26 00:21:53;;;;;;;335.55;129.88;;;;;;;4.02;100.00;103174.50;4924791;28;20126;-73
2022/03/26 00:24:19;;;;;;;352.33;132.32;;;;;;;3.96;100.00;103169.63;4927381;28;20034;-73
2022/03/26 00:26:44;;;;;;;348.50;133.02;;;;;;;3.90;100.00;103171.91;4912922;28;20057;-73
2022/03/26 00:29:10;;;;;;;343.98;130.70;;;;;;;3.87;100.00;103172.13;4923766;28;20038;-72
2022/03/26 00:31:37;;;;;;;345.50;130.40;;;;;;;3.78;100.00;103184.31;4922399;28;20050;-72
2022/03/26 00:34:04;;;;;;;338.63;129.70;;;;;;;3.68;100.00;103183.25;4922496;28;20534;-72
2022/03/26 00:36:30;;;;;;;341.98;129.35;;;;;;;3.62;100.00;103179.25;4896928;28;20105;-73
2022/03/26 00:38:56;;;;;;;341.92;129.18;;;;;;;3.57;100.00;103182.22;4925637;28;20038;-73
2022/03/26 00:41:23;;;;;;;347.40;131.43;;;;;;;3.54;100.00;103193.09;4905782;28;20041;-72
2022/03/26 00:43:48;;;;;;;356.73;128.05;;;;;;;3.53;100.00;103185.22;4909093;28;20078;-72
2022/03/26 00:46:14;;;;;;;338.70;127.68;;;;;;;3.45;100.00;103180.44;4938949;28;20504;-72
2022/03/26 00:48:39;;;;;;;336.92;125.25;;;;;;;3.41;100.00;103188.75;4912801;28;20225;-72
2022/03/26 00:51:04;;;;;;;362.85;133.93;;;;;;;3.45;100.00;103183.09;4905361;28;20041;-72
2022/03/26 00:53:30;;;;;;;373.10;137.07;;;;;;;3.53;100.00;103186.06;4909009;28;20510;-73
2022/03/26 00:55:55;;;;;;;360.70;130.60;;;;;;;3.52;100.00;103179.03;4923724;28;20038;-71
2022/03/26 00:58:21;;;;;;;368.52;134.10;;;;;;;3.47;100.00;103169.66;4907458;28;20053;-72
2022/03/26 01:00:46;;;;;;;350.08;129.77;;;;;;;3.42;100.00;103172.66;4924960;28;20026;-71
2022/03/26 01:03:12;;;;;;;356.27;131.75;;;;;;;3.43;100.00;103174.34;4922937;28;20608;-72
2022/03/26 01:05:38;;;;;;;374.48;131.30;;;;;;;3.44;100.00;103168.09;4908616;28;20589;-72
2022/03/26 01:08:04;;;;;;;372.10;138.20;;;;;;;3.44;100.00;103170.75;4912983;28;20054;-72
2022/03/26 01:10:30;;;;;;;408.30;137.70;;;;;;;3.49;100.00;103171.25;4911494;28;20062;-72
2022/03/26 01:12:56;;;;;;;384.35;137.27;;;;;;;3.50;100.00;103174.78;4926330;28;21278;-72
2022/03/26 01:15:22;;;;;;;400.58;136.23;;;;;;;3.45;100.00;103161.78;4910701;28;20050;-71
2022/03/26 01:17:49;;;;;;;445.70;150.38;;;;;;;3.54;100.00;103165.59;4921491;28;20081;-72
2022/03/26 01:20:16;;;;;;;425.00;144.02;;;;;;;3.58;100.00;103164.44;4920416;28;20038;-72
2022/03/26 01:22:42;;;;;;;406.92;141.52;;;;;;;3.55;100.00;103157.50;4917261;28;20051;-72
2022/03/26 01:25:08;;;;;;;437.33;149.65;;;;;;;3.57;100.00;103160.88;4924302;28;20045;-72
2022/03/26 01:27:33;;;;;;;467.05;156.80;;;;;;;3.64;100.00;103160.47;4896746;28;20587;-72
2022/03/26 01:29:59;;;;;;;442.80;149.48;;;;;;;3.66;100.00;103156.72;4925363;28;20052;-72
2022/03/26 01:32:24;;;;;;;440.55;150.23;;;;;;;3.62;100.00;103157.06;4910045;28;24534;-72
2022/03/26 01:34:49;;;;;;;431.35;148.30;;;;;;;3.62;100.00;103165.91;4928225;28;20125;-72
2022/03/26 01:37:16;;;;;;;414.25;139.75;;;;;;;3.57;100.00;103160.88;4911154;28;20141;-72
2022/03/26 01:39:43;;;;;;;423.23;145.93;;;;;;;3.46;100.00;103155.47;4928115;28;25256;-72
2022/03/26 01:42:08;;;;;;;404.42;142.27;;;;;;;3.41;100.00;103157.63;4929954;28;20097;-72
2022/03/26 01:44:35;;;;;;;422.58;144.38;;;;;;;3.33;100.00;103157.31;4915806;28;20054;-72
2022/03/26 01:47:01;;;;;;;434.35;143.93;;;;;;;3.27;100.00;103155.09;4927376;28;20041;-72
2022/03/26 01:49:27;;;;;;;415.35;143.65;;;;;;;3.22;100.00;103154.56;4912831;28;22044;-72
2022/03/26 01:51:53;;;;;;;405.45;140.98;;;;;;;3.14;100.00;103147.13;4924609;28;20075;-72
2022/03/26 01:54:21;;;;;;;420.80;143.07;;;;;;;3.10;100.00;103146.47;4916846;28;20388;-72
2022/03/26 01:56:46;;;;;;;437.83;150.15;;;;;;;3.16;100.00;103139.00;4896417;28;20042;-73
2022/03/26 01:59:12;;;;;;;457.30;150.63;;;;;;;3.16;100.00;103139.88;4914938;28;20104;-72
2022/03/26 02:01:38;;;;;;;458.13;152.38;;;;;;;3.23;100.00;103135.81;4927543;28;20042;-72
2022/03/26 02:04:05;;;;;;;435.95;144.25;;;;;;;3.17;100.00;103130.06;4924694;28;20036;-72
2022/03/26 02:06:32;;;;;;;431.10;142.88;;;;;;;3.11;100.00;103134.00;4900976;28;20124;-72
2022/03/26 02:09:12;;;;;;;428.95;144.52;;;;;;;3.04;100.00;103128.25;4928164;28;20034;-72
2022/03/26 02:11:39;;;;;;;406.38;138.85;;;;;;;3.03;100.00;103123.06;4910334;28;20065;-72
2022/03/26 02:14:08;;;;;;;411.58;135.27;;;;;;;3.01;100.00;103130.28;4922512;28;20030;-72
2022/03/26 02:16:36;;;;;;;401.98;137.57;;;;;;;2.95;100.00;103131.59;4911047;28;20046;-72
2022/03/26 02:19:04;;;;;;;417.45;138.15;;;;;;;2.88;100.00;103114.34;4923765;28;20113;-71
2022/03/26 02:21:31;;;;;;;419.25;136.98;;;;;;;2.86;100.00;103110.91;4910090;28;20804;-71
2022/03/26 02:23:57;;;;;;;457.90;143.82;;;;;;;2.86;100.00;103110.91;4925320;28;20085;-71
2022/03/26 02:26:26;;;;;;;424.63;136.30;;;;;;;2.81;100.00;103110.41;4926354;28;20491;-71
2022/03/26 02:28:53;;;;;;;414.42;132.75;;;;;;;2.78;100.00;103119.44;4912161;28;20058;-71
2022/03/26 02:31:18;;;;;;;415.58;133.48;;;;;;;2.75;100.00;103113.47;4925878;28;20057;-71
2022/03/26 02:33:44;;;;;;;405.48;132.60;;;;;;;2.69;100.00;103116.56;4912689;28;20124;-71
2022/03/26 02:36:10;;;;;;;405.95;133.88;;;;;;;2.62;100.00;103114.31;4930652;28;20122;-72
2022/03/26 02:38:37;;;;;;;397.95;131.23;;;;;;;2.56;100.00;103114.75;4922192;28;20054;-71
2022/03/26 02:41:06;;;;;;;397.23;130.57;;;;;;;2.54;100.00;103113.97;4926293;28;20046;-72
2022/03/26 02:43:32;;;;;;;407.60;133.52;;;;;;;2.49;100.00;103110.81;4917848;28;20145;-71
2022/03/26 02:45:57;;;;;;;382.55;128.10;;;;;;;2.46;100.00;103108.34;4913418;28;20134;-72
2022/03/26 02:48:23;;;;;;;425.05;132.38;;;;;;;2.42;100.00;103111.28;4928108;28;20847;-72
2022/03/26 02:50:48;;;;;;;399.60;129.50;;;;;;;2.40;100.00;103114.06;4919565;28;20086;-72
2022/03/26 02:53:14;;;;;;;385.27;127.10;;;;;;;2.38;100.00;103110.66;4920188;28;20037;-71
2022/03/26 02:55:40;;;;;;;385.13;128.00;;;;;;;2.31;100.00;103099.56;4915021;28;20452;-72
2022/03/26 02:58:07;;;;;;;367.17;121.75;;;;;;;2.28;100.00;103106.91;4926394;28;20037;-72
2022/03/26 03:00:34;;;;;;;414.67;132.88;;;;;;;2.32;100.00;103100.44;4908350;28;20100;-72
2022/03/26 03:02:59;;;;;;;429.08;133.73;;;;;;;2.39;100.00;103096.41;4929594;28;20033;-72
2022/03/26 03:05:25;;;;;;;429.00;133.80;;;;;;;2.39;100.00;103093.75;4904896;28;20038;-72
2022/03/26 03:07:53;;;;;;;454.80;138.82;;;;;;;2.45;100.00;103101.28;4913877;28;20140;-72
2022/03/26 03:10:19;;;;;;;435.10;136.07;;;;;;;2.45;100.00;103095.97;4924691;28;20126;-72
2022/03/26 03:12:45;;;;;;;432.50;135.20;;;;;;;2.46;100.00;103108.34;4905637;28;20054;-71
2022/03/26 03:15:12;;;;;;;463.48;140.18;;;;;;;2.52;100.00;103102.59;4929626;28;20111;-73
2022/03/26 03:17:39;;;;;;;471.50;141.82;;;;;;;2.62;100.00;103102.81;4913324;28;20050;-71
2022/03/26 03:20:05;;;;;;;474.33;148.80;;;;;;;2.72;100.00;103095.06;4925700;28;20501;-71
2022/03/26 03:22:32;;;;;;;486.67;150.52;;;;;;;2.84;100.00;103096.84;4910823;28;22722;-72
2022/03/26 03:24:57;;;;;;;534.42;160.52;;;;;;;2.92;100.00;103083.88;4924455;28;20027;-71
2022/03/26 03:27:23;;;;;;;529.88;158.98;;;;;;;3.00;100.00;103086.84;4926494;28;20097;-71
2022/03/26 03:29:49;;;;;;;524.20;160.02;;;;;;;3.06;100.00;103091.72;4908344;28;21060;-71
2022/03/26 03:32:15;;;;;;;521.95;159.35;;;;;;;3.13;100.00;103086.81;4922638;28;20065;-71
2022/03/26 03:34:41;;;;;;;516.10;157.15;;;;;;;3.10;100.00;103087.88;4911070;28;20073;-71
2022/03/26 03:37:06;;;;;;;507.40;157.18;;;;;;;3.12;100.00;103090.44;4922743;28;20042;-71
2022/03/26 03:39:33;;;;;;;500.90;157.77;;;;;;;3.09;100.00;103088.84;4907909;28;20062;-71
2022/03/26 03:41:58;;;;;;;504.02;158.23;;;;;;;3.05;100.00;103092.72;4925553;28;20117;-71
2022/03/26 03:44:25;;;;;;;514.30;157.82;;;;;;;3.10;100.00;103092.38;4904905;28;21253;-71
2022/03/26 03:46:50;;;;;;;519.92;162.85;;;;;;;3.29;100.00;103102.56;4924201;28;20049;-70
2022/03/26 03:49:16;;;;;;;502.30;162.18;;;;;;;3.41;100.00;103096.34;4928809;28;20063;-70
2022/03/26 03:51:41;;;;;;;483.33;153.98;;;;;;;3.31;100.00;103101.50;4909816;28;20080;-71
2022/03/26 03:54:08;;;;;;;483.75;153.73;;;;;;;3.17;100.00;103098.13;4923917;28;20114;-71
2022/03/26 03:56:34;;;;;;;463.50;145.18;;;;;;;3.06;100.00;103102.38;4907895;28;20061;-71
2022/03/26 03:58:59;;;;;;;442.25;141.52;;;;;;;3.00;100.00;103102.81;4921560;28;20161;-71
2022/03/26 04:01:24;;;;;;;472.52;146.50;;;;;;;2.97;100.00;103108.34;4909196;28;20078;-71
2022/03/26 04:03:50;;;;;;;468.85;146.27;;;;;;;2.87;100.00;103109.94;4925398;28;20034;-71
2022/03/26 04:06:16;;;;;;;433.30;143.82;;;;;;;2.73;100.00;103115.38;4921078;28;20125;-71
2022/03/26 04:08:41;;;;;;;449.73;140.52;;;;;;;2.59;100.00;103114.50;4912799;28;20069;-71
2022/03/26 04:11:07;;;;;;;447.70;147.25;;;;;;;2.56;100.00;103114.75;4919950;28;20419;-71
2022/03/26 04:13:32;;;;;;;488.77;150.85;;;;;;;2.52;100.00;103113.22;4905784;28;20066;-71
2022/03/26 04:15:58;;;;;;;508.73;155.00;;;;;;;2.54;100.00;103105.16;4920816;28;20475;-70
2022/03/26 04:18:23;;;;;;;495.98;154.38;;;;;;;2.61;100.00;103107.28;4904017;28;20507;-70
2022/03/26 04:20:53;;;;;;;507.27;161.65;;;;;;;2.81;100.00;103113.06;4936198;28;20022;-70
2022/03/26 04:23:19;;;;;;;535.70;165.40;;;;;;;2.90;100.00;103111.56;4906115;28;20128;-71
2022/03/26 04:25:46;;;;;;;562.67;170.02;;;;;;;2.91;100.00;103110.59;4922719;28;20068;-71
2022/03/26 04:28:12;;;;;;;566.80;166.75;;;;;;;2.97;100.00;103107.50;4923740;28;20542;-71
2022/03/26 04:30:37;;;;;;;593.72;176.07;;;;;;;3.04;100.00;103106.13;4910763;28;20487;-71
2022/03/26 04:33:02;;;;;;;548.30;170.13;;;;;;;3.06;100.00;103105.06;4923301;28;20041;-71
2022/03/26 04:35:28;;;;;;;562.67;170.40;;;;;;;3.06;100.00;103110.38;4906721;28;20077;-71
2022/03/26 04:37:56;;;;;;;560.00;169.57;;;;;;;3.04;100.00;103109.63;4923191;28;20046;-70
2022/03/26 04:40:22;;;;;;;532.03;163.25;;;;;;;3.01;100.00;103108.97;4908071;28;20110;-70
2022/03/26 04:42:48;;;;;;;542.50;163.55;;;;;;;2.96;100.00;103111.13;4923454;28;20029;-71
2022/03/26 04:45:13;;;;;;;559.05;167.48;;;;;;;2.94;100.00;103124.53;4919291;28;20117;-71
2022/03/26 04:47:38;;;;;;;569.65;171.00;;;;;;;2.97;100.00;103134.97;4912226;28;20532;-71
2022/03/26 04:50:06;;;;;;;576.30;169.85;;;;;;;3.06;100.00;103129.03;4922322;28;20587;-70
2022/03/26 04:52:32;;;;;;;620.78;183.20;;;;;;;3.14;100.00;103130.28;4924255;28;20054;-71
2022/03/26 04:54:58;;;;;;;615.75;183.38;;;;;;;3.23;100.00;103134.94;4922872;28;20541;-71
2022/03/26 04:57:23;;;;;;;650.08;193.38;;;;;;;3.28;100.00;103132.81;4911148;28;20057;-71
2022/03/26 04:59:49;;;;;;;571.70;182.70;;;;;;;3.32;100.00;103140.47;4929392;28;20034;-71
2022/03/26 05:02:14;;;;;;;625.38;186.68;;;;;;;3.33;100.00;103142.22;4912520;28;20542;-71
2022/03/26 05:04:40;;;;;;;571.17;178.82;;;;;;;3.29;100.00;103139.84;4927727;28;20035;-71
2022/03/26 05:07:45;;;;;;;610.78;178.82;;;;;;;3.26;100.00;103138.25;4924449;28;20057;-71
2022/03/26 05:09:51;;;;;;;604.50;175.88;;;;;;;3.21;100.00;103136.88;4945004;28;20046;-71
2022/03/26 05:12:17;;;;;;;612.30;178.65;;;;;;;3.15;100.00;103137.31;4944866;28;20045;-71
2022/03/26 05:14:43;;;;;;;622.13;182.65;;;;;;;3.09;100.00;103131.47;4911026;28;20506;-71
2022/03/26 05:17:09;;;;;;;616.78;181.60;;;;;;;3.10;100.00;103138.50;4929481;28;20148;-71
2022/03/26 05:19:34;;;;;;;653.60;186.38;;;;;;;3.14;100.00;103141.78;4929278;28;24784;-71
2022/03/26 05:22:00;;;;;;;649.88;188.05;;;;;;;3.19;100.00;103149.44;4927828;28;20038;-71
2022/03/26 05:24:26;;;;;;;652.08;193.48;;;;;;;3.40;100.00;103158.56;4929930;28;20050;-71
2022/03/26 05:26:51;;;;;;;664.47;191.43;;;;;;;3.48;100.00;103156.25;4926068;28;20042;-71
2022/03/26 05:29:17;;;;;;;611.63;184.02;;;;;;;3.48;100.00;103158.91;4927096;28;20231;-71
2022/03/26 05:31:43;;;;;;;642.80;186.02;;;;;;;3.51;100.00;103155.16;4892816;28;20056;-71
2022/03/26 05:34:09;;;;;;;618.15;180.65;;;;;;;3.50;100.00;103154.31;4914317;28;20069;-72
2022/03/26 05:36:34;;;;;;;669.05;195.32;;;;;;;3.55;100.00;103160.16;4907970;28;20104;-71
2022/03/26 05:39:00;;;;;;;659.28;191.90;;;;;;;3.57;100.00;103163.56;4934000;28;20946;-71
2022/03/26 05:41:26;;;;;;;678.22;195.23;;;;;;;3.62;100.00;103165.06;4911718;28;20065;-71
2022/03/26 05:43:51;;;;;;;658.72;191.70;;;;;;;3.66;100.00;103170.06;4925888;28;20034;-71
2022/03/26 05:46:17;;;;;;;680.60;197.90;;;;;;;3.78;100.00;103173.63;4910688;28;20138;-71
2022/03/26 05:48:42;;;;;;;654.15;193.77;;;;;;;3.93;100.00;103167.22;4924650;28;20022;-71
2022/03/26 05:51:07;;;;;;;604.55;182.65;;;;;;;4.09;100.00;103172.25;4931693;28;20074;-71
2022/03/26 05:53:33;;;;;;;660.90;189.60;;;;;;;4.23;100.00;103173.91;4915010;28;20042;-71
2022/03/26 05:55:59;;;;;;;652.13;193.20;;;;;;;4.49;100.00;103167.47;4926509;28;20156;-71
2022/03/26 05:58:25;;;;;;;645.65;195.15;;;;;;;4.84;100.00;103174.56;4909564;28;20129;-71
2022/03/26 06:00:50;;;;;;;642.17;192.80;;;;;;;5.17;100.00;103176.47;4925972;28;20042;-71
2022/03/26 06:03:19;;;;;;;601.60;191.65;;;;;;;5.47;100.00;103173.16;4906236;28;24741;-71
2022/03/26 06:05:48;;;;;;;592.22;186.55;;;;;;;5.75;100.00;103176.31;4929796;28;20034;-71
2022/03/26 06:08:13;;;;;;;587.25;188.80;;;;;;;6.06;100.00;103180.03;4922937;28;20030;-72
2022/03/26 06:10:39;;;;;;;558.20;186.80;;;;;;;6.47;100.00;103183.81;4909999;28;20094;-71
2022/03/26 06:13:04;;;;;;;470.27;172.00;;;;;;;6.92;100.00;103179.06;4927390;28;21323;-72
2022/03/26 06:15:31;;;;;;;462.33;163.25;;;;;;;7.27;100.00;103177.84;4911932;28;20088;-72
2022/03/26 06:17:56;;;;;;;465.98;165.68;;;;;;;7.76;100.00;103181.53;4926840;28;20379;-72
2022/03/26 06:20:22;;;;;;;407.13;155.20;;;;;;;8.25;100.00;103182.47;4910149;28;20687;-72
2022/03/26 06:22:47;;;;;;;370.73;148.50;;;;;;;8.63;100.00;103179.94;4929278;28;20860;-73
2022/03/26 06:25:13;;;;;;;329.70;142.77;;;;;;;8.87;100.00;103184.88;4913003;28;20141;-72
2022/03/26 06:27:38;;;;;;;286.45;136.90;;;;;;;9.22;100.00;103189.59;4931796;28;20039;-72
2022/03/26 06:30:04;;;;;;;258.13;126.80;;;;;;;9.41;100.00;103188.69;4928557;28;20034;-72
2022/03/26 06:32:29;;;;;;;237.85;125.00;;;;;;;9.67;100.00;103200.44;4910153;28;20050;-72
2022/03/26 06:34:56;;;;;;;241.68;122.43;;;;;;;9.84;100.00;103201.50;4926065;28;20740;-72
2022/03/26 06:37:22;;;;;;;225.40;118.72;;;;;;;10.11;100.00;103203.31;4911154;28;20108;-72
2022/03/26 06:39:47;;;;;;;226.07;117.97;;;;;;;10.54;100.00;103200.91;4926740;28;20031;-72
2022/03/26 06:42:13;;;;;;;204.85;112.53;;;;;;;10.90;100.00;103196.28;4912342;28;20109;-72
2022/03/26 06:44:38;;;;;;;209.65;113.72;;;;;;;11.14;100.00;103201.84;4928361;28;20061;-73
2022/03/26 06:47:04;;;;;;;193.55;108.03;;;;;;;11.45;100.00;103204.06;4923311;28;20050;-74
2022/03/26 06:49:31;;;;;;;188.80;104.60;;;;;;;11.75;100.00;103199.94;4908661;28;20058;-73
2022/03/26 06:51:57;;;;;;;198.88;108.65;;;;;;;11.90;100.00;103192.13;4912965;28;20748;-73
2022/03/26 06:54:23;;;;;;;181.35;101.60;;;;;;;12.07;100.00;103196.53;4912888;28;20051;-73
2022/03/26 06:56:48;;;;;;;183.02;104.07;;;;;;;12.24;100.00;103183.06;4924865;28;20046;-74
2022/03/26 06:59:14;;;;;;;174.70;101.38;;;;;;;12.64;100.00;103198.47;4909417;28;20057;-73
2022/03/26 07:01:39;;;;;;;180.73;98.95;;;;;;;13.00;100.00;103190.00;4926051;28;20035;-73
2022/03/26 07:04:05;;;;;;;178.90;98.53;;;;;;;13.06;100.00;103192.00;4907636;28;20054;-74
2022/03/26 07:06:30;;;;;;;169.20;97.70;;;;;;;13.03;100.00;103201.31;4919969;28;21001;-73
2022/03/26 07:08:56;;;;;;;156.93;95.68;;;;;;;13.16;100.00;103199.91;4922288;28;20038;-74
2022/03/26 07:11:21;;;;;;;164.00;99.72;;;;;;;13.08;100.00;103196.22;4906247;28;20965;-73
2022/03/26 07:13:47;;;;;;;159.18;97.10;;;;;;;13.34;100.00;103192.47;4923941;28;20725;-72
2022/03/26 07:16:13;;;;;;;156.38;92.88;;;;;;;13.87;100.00;103203.59;4891010;28;20058;-72
2022/03/26 07:18:38;;;;;;;157.75;96.47;;;;;;;13.99;100.00;103203.00;4924834;28;20549;-72
2022/03/26 07:21:04;;;;;;;161.68;93.38;;;;;;;14.04;100.00;103199.78;4910201;28;20987;-72
2022/03/26 07:23:29;;;;;;;147.70;91.13;;;;;;;14.43;100.00;103193.44;4926965;28;20062;-73
2022/03/26 07:25:55;;;;;;;150.75;93.50;;;;;;;14.59;95.62;103197.88;4923900;28;20034;-73
2022/03/26 07:28:20;;;;;;;153.77;96.57;;;;;;;14.90;90.49;103200.50;4914647;28;20460;-73
2022/03/26 07:30:46;;;;;;;146.25;90.32;;;;;;;15.21;80.67;103203.06;4926016;28;20112;-72
2022/03/26 07:33:11;;;;;;;138.75;89.93;;;;;;;15.25;75.61;103209.81;4910488;28;21046;-73
2022/03/26 07:35:37;;;;;;;141.30;87.65;;;;;;;15.25;74.30;103212.53;4922537;28;20078;-72
2022/03/26 07:38:03;;;;;;;138.30;87.70;;;;;;;15.47;70.83;103208.03;4906961;28;20050;-73
2022/03/26 07:40:29;;;;;;;139.82;88.68;;;;;;;15.62;69.94;103213.44;4921790;28;20497;-73
2022/03/26 07:42:54;;;;;;;130.68;86.13;;;;;;;15.84;68.13;103212.53;4907978;28;20086;-73
2022/03/26 07:45:20;;;;;;;140.65;87.20;;;;;;;16.23;65.21;103208.56;4924302;28;20129;-73
2022/03/26 07:47:45;;;;;;;138.32;85.50;;;;;;;16.49;61.07;103216.16;4925480;28;20045;-70
2022/03/26 07:50:11;;;;;;;129.48;81.38;;;;;;;16.35;59.03;103215.19;4909667;28;20086;-72
2022/03/26 07:52:37;;;;;;;122.40;80.18;;;;;;;16.74;58.92;103215.75;4938574;28;20037;-73
2022/03/26 07:55:03;;;;;;;128.05;79.57;;;;;;;16.82;58.02;103212.94;4923844;28;20054;-72
2022/03/26 07:57:28;;;;;;;127.43;78.75;;;;;;;17.35;56.53;103214.13;4925862;28;22748;-72
2022/03/26 07:59:54;;;;;;;126.65;79.28;;;;;;;17.47;54.50;103216.28;4909737;28;20054;-73
2022/03/26 08:02:19;;;;;;;122.28;77.15;;;;;;;17.75;53.58;103219.78;4924542;28;20053;-72
2022/03/26 08:04:45;;;;;;;121.35;78.72;;;;;;;18.01;52.63;103229.16;4910757;28;20753;-72
2022/03/26 08:07:11;;;;;;;114.18;72.85;;;;;;;18.17;51.08;103233.41;4922175;28;20632;-73
2022/03/26 08:09:36;;;;;;;97.43;65.28;;;;;;;17.94;50.88;103239.22;4930593;28;20056;-72
2022/03/26 08:12:03;;;;;;;92.25;64.30;;;;;;;17.89;51.16;103237.91;4913976;28;20054;-72
2022/03/26 08:14:30;;;;;;;92.72;62.13;;;;;;;17.48;51.48;103231.59;4913464;28;20038;-70
2022/03/26 08:16:56;;;;;;;93.38;62.60;;;;;;;17.65;52.94;103235.66;4912578;28;20054;-71
2022/03/26 08:19:21;;;;;;;87.22;55.72;;;;;;;17.05;54.17;103250.78;4924294;28;20037;-72
2022/03/26 08:21:47;;;;;;;92.75;56.83;;;;;;;17.11;55.06;103239.13;4908218;28;20046;-72
2022/03/26 08:24:13;;;;;;;81.03;54.95;;;;;;;17.34;54.24;103236.97;4922400;28;20160;-72
2022/03/26 08:26:39;;;;;;;86.00;54.13;;;;;;;17.64;53.90;103228.53;4921978;28;20343;-72
2022/03/26 08:29:05;;;;;;;73.35;49.97;;;;;;;17.42;54.05;103235.97;4910402;28;20078;-72
2022/03/26 08:31:31;;;;;;;68.45;46.10;;;;;;;17.40;55.31;103233.44;4921259;28;23935;-72
2022/03/26 08:33:57;;;;;;;71.18;47.53;;;;;;;17.12;56.44;103240.78;4913939;28;20054;-73
2022/03/26 08:36:23;;;;;;;68.28;46.80;;;;;;;17.09;57.08;103241.19;4923399;28;20054;-69
2022/03/26 08:38:50;;;;;;;74.15;50.58;;;;;;;17.27;56.95;103237.97;4916616;28;20053;-69
2022/03/26 08:41:17;;;;;;;68.88;46.20;;;;;;;17.88;55.10;103240.84;4927027;28;20042;-69
2022/03/26 08:43:43;;;;;;;67.53;46.58;;;;;;;17.72;54.79;103244.72;4929534;28;20601;-69
2022/03/26 08:46:09;;;;;;;64.30;43.30;;;;;;;17.58;55.42;103248.41;4924058;28;20033;-69
2022/03/26 08:48:35;;;;;;;67.68;46.03;;;;;;;17.63;55.67;103249.50;4946609;28;20095;-69
2022/03/26 08:51:02;;;;;;;71.75;46.92;;;;;;;17.44;57.65;103243.94;4929044;28;20061;-69
2022/03/26 08:53:28;;;;;;;69.97;48.20;;;;;;;17.71;56.81;103250.38;4945695;28;20034;-69
2022/03/26 08:55:54;;;;;;;71.32;45.92;;;;;;;18.16;54.46;103248.09;4927735;28;23561;-68
2022/03/26 08:58:20;;;;;;;72.13;45.55;;;;;;;18.00;55.29;103246.56;4944191;28;23413;-69
2022/03/26 09:00:47;;;;;;;69.90;49.55;;;;;;;17.98;56.48;103254.13;4927151;28;20073;-68
2022/03/26 09:03:22;;;;;;;67.95;49.80;;;;;;;18.28;55.09;103241.81;4944155;28;20029;-68
2022/03/26 09:05:49;;;;;;;72.03;50.85;;;;;;;18.03;55.81;103246.16;4925839;28;20041;-69
2022/03/26 09:08:15;;;;;;;68.75;47.60;;;;;;;18.44;54.68;103245.22;4941863;28;20069;-68
2022/03/26 09:10:40;;;;;;;69.85;48.78;;;;;;;18.62;53.70;103242.72;4941920;28;20045;-69
2022/03/26 09:13:06;;;;;;;67.80;48.55;;;;;;;18.73;53.73;103238.56;4932055;28;20141;-69
2022/03/26 09:15:31;;;;;;;60.60;44.47;;;;;;;18.83;53.19;103258.94;4943432;28;20029;-68
2022/03/26 09:17:58;;;;;;;65.45;45.38;;;;;;;18.96;52.50;103238.16;4931309;28;20601;-68
2022/03/26 09:20:23;;;;;;;62.83;43.78;;;;;;;19.05;51.81;103248.63;4924505;28;20030;-72
2022/03/26 09:22:48;;;;;;;65.30;45.42;;;;;;;18.70;52.45;103247.97;4905804;28;20266;-72
2022/03/26 09:25:16;;;;;;;59.00;41.85;;;;;;;18.16;53.91;103238.00;4926723;28;20034;-72
2022/03/26 09:27:42;;;;;;;62.15;42.65;;;;;;;18.06;54.98;103243.00;4919183;28;20073;-72
2022/03/26 09:30:08;;;;;;;53.22;40.95;;;;;;;18.32;54.45;103243.09;4904848;28;20097;-72
2022/03/26 09:32:34;;;;;;;57.47;40.88;;;;;;;18.43;53.40;103243.50;4943146;28;20124;-72
2022/03/26 09:34:59;;;;;;;53.33;35.28;;;;;;;18.62;52.18;103241.88;4929443;28;20041;-71
2022/03/26 09:37:25;;;;;;;53.58;36.75;;;;;;;18.79;51.52;103244.03;4944708;28;20133;-73
2022/03/26 09:39:50;;;;;;;49.53;36.67;;;;;;;18.50;52.77;103244.41;4928069;28;23047;-73
2022/03/26 09:42:16;;;;;;;51.53;36.63;;;;;;;18.91;52.72;103243.38;4943327;28;20041;-71
2022/03/26 09:44:41;;;;;;;48.05;35.67;;;;;;;19.01;51.45;103241.91;4930616;28;20067;-71
2022/03/26 09:47:08;;;;;;;50.33;34.53;;;;;;;18.99;51.38;103238.56;4933303;28;20037;-71
2022/03/26 09:49:34;;;;;;;48.08;33.92;;;;;;;19.12;50.92;103234.97;4944857;28;24586;-71
2022/03/26 09:51:59;;;;;;;47.92;33.67;;;;;;;19.12;51.30;103236.88;4930819;28;20829;-72
2022/03/26 09:54:26;;;;;;;44.85;31.58;;;;;;;18.92;50.75;103237.72;4946119;28;20147;-72
2022/03/26 09:56:52;;;;;;;49.20;32.20;;;;;;;19.03;50.67;103239.00;4916147;28;20115;-72
2022/03/26 09:59:20;;;;;;;45.45;30.67;;;;;;;18.91;50.90;103240.66;4945198;28;20034;-72
2022/03/26 10:01:46;;;;;;;36.92;27.17;;;;;;;18.91;50.65;103240.66;4927312;28;20147;-72
2022/03/26 10:04:16;;;;;;;29.80;21.92;;;;;;;18.80;49.25;103240.22;4945304;28;20588;-72
2022/03/26 10:06:53;;;;;;;25.50;18.92;;;;;;;18.76;48.43;103247.16;4919088;28;20046;-72
2022/03/26 10:09:34;;;;;;;29.95;17.77;;;;;;;18.75;48.32;103242.78;4928414;28;20129;-73
2022/03/26 10:12:20;;;;;;;30.77;18.65;;;;;;;18.64;49.39;103240.63;4935780;28;20176;-73
2022/03/26 10:14:52;;;;;;;28.23;18.25;;;;;;;18.91;48.07;103246.13;4928440;28;20041;-73
2022/03/26 10:17:22;;;;;;;22.23;16.65;;;;;;;18.77;48.59;103240.66;4913319;28;20553;-73
2022/03/26 10:19:51;;;;;;;26.63;17.33;;;;;;;18.33;49.08;103255.69;4934339;28;20045;-73
2022/03/26 10:22:32;;;;;;;22.30;15.18;;;;;;;18.35;49.30;103247.28;4931834;28;20045;-72
2022/03/26 10:25:09;;;;;;;23.98;14.63;;;;;;;18.48;48.74;103238.28;4929534;28;20057;-72
2022/03/26 10:27:42;;;;;;;19.05;14.52;;;;;;;18.46;47.65;103241.25;4931034;28;20030;-73
2022/03/26 10:30:13;;;;;;;20.65;14.05;;;;;;;18.77;47.58;103248.84;4926827;28;20046;-72
2022/03/26 10:32:41;;;;;;;21.55;14.00;;;;;;;19.39;46.13;103243.97;4918653;28;20045;-72
2022/03/26 10:35:18;;;;;;;16.88;12.10;;;;;;;18.93;45.92;103228.47;4889780;28;20060;-72
2022/03/26 10:37:51;;;;;;;24.20;13.88;;;;;;;18.97;46.02;103239.81;4946050;28;20198;-73
2022/03/26 10:40:22;;;;;;;18.17;12.80;;;;;;;19.33;45.77;103238.50;4931088;28;20157;-72
2022/03/26 10:43:15;;;;;;;18.40;13.95;;;;;;;19.21;46.04;103250.09;4944654;28;20034;-73
2022/03/26 10:45:51;;;;;;;19.08;11.40;;;;;;;19.26;45.39;103233.88;4929429;28;20057;-74
2022/03/26 10:48:25;;;;;;;17.67;11.52;;;;;;;19.46;45.03;103222.09;4932337;28;20123;-73
2022/03/26 10:50:58;;;;;;;16.88;11.43;;;;;;;19.47;44.83;103240.16;4905244;28;20048;-74
2022/03/26 10:53:36;;;;;;;13.27;10.45;;;;;;;19.24;45.13;103236.00;4945608;28;20038;-73